createdAt,value
2022-09-17T00:01:32.972Z,20.72
2022-09-17T00:04:04.033Z,20.75
2022-09-17T00:06:35.694Z,20.74
2022-09-17T00:09:08.174Z,20.72
2022-09-17T00:11:40.903Z,20.55
2022-09-17T00:14:15.275Z,20.50
2022-09-17T00:16:47.714Z,20.36
2022-09-17T00:19:23.368Z,20.34
2022-09-17T00:21:51.801Z,20.38
2022-09-17T00:24:20.793Z,20.29
2022-09-17T00:26:50.065Z,20.13
2022-09-17T00:29:17.675Z,20.12
2022-09-17T00:31:44.969Z,20.12
2022-09-17T00:34:12.316Z,20.11
2022-09-17T00:36:40.227Z,20.05
2022-09-17T00:39:11.317Z,19.95
2022-09-17T00:41:39.741Z,19.94
2022-09-17T00:44:53.805Z,19.94
2022-09-17T00:47:39.637Z,19.88
2022-09-17T00:50:21.764Z,19.90
2022-09-17T00:53:06.916Z,19.71
2022-09-17T00:55:57.024Z,19.69
2022-09-17T00:58:26.260Z,19.57
2022-09-17T01:00:53.979Z,19.53
2022-09-17T01:03:22.021Z,19.51
2022-09-17T01:06:14.567Z,19.42
2022-09-17T01:09:07.727Z,19.42
2022-09-17T01:12:30.029Z,19.36
2022-09-17T01:15:24.302Z,19.16
2022-09-17T01:18:33.960Z,19.06
2022-09-17T01:21:38.205Z,19.04
2022-09-17T01:24:44.717Z,19.02
2022-09-17T01:27:35.060Z,18.99
2022-09-17T01:30:40.189Z,19.09
2022-09-17T01:33:28.774Z,19.08
2022-09-17T01:36:34.340Z,19.00
2022-09-17T01:39:45.260Z,18.93
2022-09-17T01:42:47.562Z,18.82
2022-09-17T01:45:30.923Z,18.65
2022-09-17T01:48:19.834Z,18.59
2022-09-17T01:51:14.775Z,18.55
2022-09-17T01:53:59.651Z,18.51
2022-09-17T01:56:36.809Z,18.44
2022-09-17T01:59:22.992Z,18.44
2022-09-17T02:01:58.366Z,18.44
2022-09-17T02:04:42.831Z,18.44
2022-09-17T02:07:22.696Z,18.49
2022-09-17T02:10:37.049Z,18.50
2022-09-17T02:13:16.996Z,18.57
2022-09-17T02:15:54.101Z,18.59
2022-09-17T02:18:54.370Z,18.56
2022-09-17T02:21:58.607Z,18.50
2022-09-17T02:25:11.330Z,18.50
2022-09-17T02:27:58.868Z,18.46
2022-09-17T02:30:26.385Z,18.36
2022-09-17T02:32:55.727Z,18.28
2022-09-17T02:35:23.720Z,18.12
2022-09-17T02:37:53.093Z,18.15
2022-09-17T02:40:24.241Z,18.11
2022-09-17T02:43:56.976Z,18.09
2022-09-17T02:46:58.924Z,18.11
2022-09-17T02:50:14.883Z,17.95
2022-09-17T02:53:15.440Z,17.93
2022-09-17T02:56:08.917Z,17.96
2022-09-17T02:59:12.743Z,17.96
2022-09-17T03:02:18.390Z,17.88
2022-09-17T03:04:49.766Z,17.77
2022-09-17T03:07:20.180Z,17.74
2022-09-17T03:09:47.771Z,17.67
2022-09-17T03:12:16.562Z,17.76
2022-09-17T03:14:43.888Z,17.86
2022-09-17T03:17:12.247Z,17.83
2022-09-17T03:19:39.542Z,17.68
2022-09-17T03:22:06.875Z,17.59
2022-09-17T03:24:34.021Z,17.52
2022-09-17T03:27:01.345Z,17.44
2022-09-17T03:29:28.688Z,17.37
2022-09-17T03:31:55.873Z,17.32
2022-09-17T03:34:23.857Z,17.22
2022-09-17T03:36:51.153Z,17.25
2022-09-17T03:39:18.481Z,17.18
2022-09-17T03:41:46.241Z,17.14
2022-09-17T03:44:15.241Z,17.06
2022-09-17T03:46:43.518Z,17.01
2022-09-17T03:49:10.816Z,16.97
2022-09-17T03:51:37.951Z,16.93
2022-09-17T03:54:05.311Z,16.87
2022-09-17T03:56:32.982Z,16.81
2022-09-17T03:59:01.893Z,16.76
2022-09-17T04:01:29.929Z,16.79
2022-09-17T04:03:57.954Z,16.77
2022-09-17T04:06:25.381Z,16.72
2022-09-17T04:08:53.056Z,16.76
2022-09-17T04:11:20.567Z,16.78
2022-09-17T04:13:47.886Z,16.80
2022-09-17T04:16:15.457Z,16.81
2022-09-17T04:18:42.722Z,16.79
2022-09-17T04:21:09.973Z,16.70
2022-09-17T04:23:37.116Z,16.74
2022-09-17T04:26:04.603Z,16.71
2022-09-17T04:28:31.804Z,16.70
2022-09-17T04:30:59.012Z,16.69
2022-09-17T04:33:26.448Z,16.68
2022-09-17T04:35:54.292Z,16.56
2022-09-17T04:38:22.405Z,16.56
2022-09-17T04:40:51.473Z,16.47
2022-09-17T04:43:19.008Z,16.37
2022-09-17T04:45:49.247Z,16.33
2022-09-17T04:48:17.233Z,16.37
2022-09-17T04:50:44.785Z,16.47
2022-09-17T04:53:12.826Z,16.51
2022-09-17T04:55:40.448Z,16.55
2022-09-17T04:58:07.634Z,16.50
2022-09-17T05:00:35.571Z,16.46
2022-09-17T05:03:03.562Z,16.37
2022-09-17T05:05:30.796Z,16.27
2022-09-17T05:07:58.308Z,16.16
2022-09-17T05:10:26.302Z,16.16
2022-09-17T05:12:56.383Z,16.21
2022-09-17T05:15:26.009Z,16.26
2022-09-17T05:17:53.524Z,16.13
2022-09-17T05:20:21.093Z,16.02
2022-09-17T05:22:51.880Z,15.96
2022-09-17T05:25:25.070Z,16.02
2022-09-17T05:27:56.291Z,16.14
2022-09-17T05:30:23.901Z,16.15
2022-09-17T05:33:05.656Z,16.10
2022-09-17T05:35:35.878Z,16.04
2022-09-17T05:38:07.601Z,15.96
2022-09-17T05:40:38.362Z,16.01
2022-09-17T05:43:07.255Z,16.18
2022-09-17T05:45:36.127Z,16.13
2022-09-17T05:48:13.156Z,16.09
2022-09-17T05:50:41.452Z,16.09
2022-09-17T05:53:12.690Z,16.09
2022-09-17T05:55:40.517Z,16.02
2022-09-17T05:58:18.785Z,15.92
2022-09-17T06:00:48.751Z,15.82
2022-09-17T06:03:22.044Z,15.88
2022-09-17T06:05:59.072Z,15.93
2022-09-17T06:08:28.850Z,15.97
2022-09-17T06:11:01.521Z,16.09
2022-09-17T06:13:29.850Z,16.13
2022-09-17T06:15:57.366Z,16.28
2022-09-17T06:18:24.727Z,16.29
2022-09-17T06:21:00.852Z,16.23
2022-09-17T06:23:35.150Z,16.27
2022-09-17T06:26:04.903Z,16.45
2022-09-17T06:28:34.259Z,16.39
2022-09-17T06:31:06.594Z,16.28
2022-09-17T06:33:34.908Z,16.30
2022-09-17T06:36:13.080Z,16.50
2022-09-17T06:38:41.373Z,16.63
2022-09-17T06:41:08.799Z,16.64
2022-09-17T06:43:36.130Z,16.53
2022-09-17T06:46:06.164Z,16.62
2022-09-17T06:48:35.802Z,16.75
2022-09-17T06:51:10.628Z,16.68
2022-09-17T06:53:38.977Z,16.82
2022-09-17T06:56:09.034Z,16.95
2022-09-17T06:58:37.546Z,16.96
2022-09-17T07:01:05.766Z,17.05
2022-09-17T07:03:34.578Z,17.09
2022-09-17T07:06:02.081Z,17.20
2022-09-17T07:08:32.360Z,17.33
2022-09-17T07:10:59.729Z,17.32
2022-09-17T07:13:27.206Z,17.38
2022-09-17T07:15:57.913Z,17.50
2022-09-17T07:18:26.789Z,17.57
2022-09-17T07:20:57.035Z,17.56
2022-09-17T07:23:31.086Z,17.55
2022-09-17T07:26:03.319Z,17.65
2022-09-17T07:28:30.797Z,17.64
2022-09-17T07:30:58.467Z,17.76
2022-09-17T07:33:28.072Z,17.83
2022-09-17T07:36:06.190Z,17.75
2022-09-17T07:38:35.074Z,17.88
2022-09-17T07:41:14.983Z,17.77
2022-09-17T07:43:43.545Z,17.82
2022-09-17T07:46:20.566Z,17.78
2022-09-17T07:48:49.180Z,17.95
2022-09-17T07:51:24.113Z,17.91
2022-09-17T07:53:58.114Z,17.63
2022-09-17T07:56:27.582Z,17.59
2022-09-17T07:58:55.618Z,17.66
2022-09-17T08:01:23.266Z,17.35
2022-09-17T08:03:54.279Z,17.43
2022-09-17T08:06:28.152Z,17.15
2022-09-17T08:08:58.672Z,17.05
2022-09-17T08:11:54.647Z,17.12
2022-09-17T08:14:16.856Z,17.13
2022-09-17T08:16:47.528Z,17.13
2022-09-17T08:19:19.018Z,17.14
2022-09-17T08:21:47.320Z,17.08
2022-09-17T08:24:14.609Z,17.07
2022-09-17T08:26:42.073Z,17.06
2022-09-17T08:29:11.267Z,17.02
2022-09-17T08:31:38.576Z,16.79
2022-09-17T08:34:10.204Z,16.98
2022-09-17T08:36:38.745Z,17.17
2022-09-17T08:39:05.993Z,17.26
2022-09-17T08:42:05.486Z,17.01
2022-09-17T08:44:42.904Z,17.02
2022-09-17T08:47:38.717Z,16.84
2022-09-17T08:50:34.614Z,16.70
2022-09-17T08:53:39.197Z,16.65
2022-09-17T08:56:19.917Z,16.60
2022-09-17T08:59:21.561Z,16.87
2022-09-17T09:02:04.186Z,16.83
2022-09-17T09:04:57.258Z,16.88
2022-09-17T09:07:35.003Z,16.85
2022-09-17T09:10:29.527Z,17.10
2022-09-17T09:13:00.263Z,17.13
2022-09-17T09:15:52.325Z,17.19
2022-09-17T09:18:27.287Z,17.25
2022-09-17T09:21:13.057Z,17.29
2022-09-17T09:24:04.338Z,17.14
2022-09-17T09:26:45.099Z,17.27
2022-09-17T09:29:30.405Z,17.18
2022-09-17T09:33:01.692Z,17.23
2022-09-17T09:35:32.114Z,17.54
2022-09-17T09:38:09.705Z,17.43
2022-09-17T09:40:57.268Z,17.44
2022-09-17T09:43:59.843Z,17.54
2022-09-17T09:47:13.271Z,17.76
2022-09-17T09:50:05.429Z,17.86
2022-09-17T09:53:06.434Z,18.00
2022-09-17T09:56:28.501Z,18.04
2022-09-17T09:58:55.694Z,17.93
2022-09-17T10:01:23.108Z,18.04
2022-09-17T10:03:54.013Z,17.83
2022-09-17T10:06:21.491Z,17.74
2022-09-17T10:08:57.753Z,17.83
2022-09-17T10:11:35.084Z,18.01
2022-09-17T10:14:28.521Z,17.61
2022-09-17T10:17:21.597Z,16.96
2022-09-17T10:20:07.778Z,17.37
2022-09-17T10:22:45.892Z,17.70
2022-09-17T10:25:34.771Z,17.76
2022-09-17T10:28:06.230Z,17.86
2022-09-17T10:30:35.081Z,17.86
2022-09-17T10:33:14.082Z,17.91
2022-09-17T10:35:41.712Z,17.84
2022-09-17T10:38:46.357Z,18.00
2022-09-17T10:41:22.419Z,18.05
2022-09-17T10:43:51.466Z,18.05
2022-09-17T10:46:29.324Z,18.29
2022-09-17T10:49:39.504Z,18.33
2022-09-17T10:52:34.261Z,18.43
2022-09-17T10:55:34.009Z,19.09
2022-09-17T10:58:40.390Z,19.24
2022-09-17T11:01:28.579Z,20.48
2022-09-17T11:04:29.661Z,19.92
2022-09-17T11:07:33.554Z,20.26
2022-09-17T11:10:33.197Z,20.37
2022-09-17T11:13:47.088Z,20.87
2022-09-17T11:16:44.658Z,20.57
2022-09-17T11:19:57.044Z,21.26
2022-09-17T11:23:07.053Z,19.39
2022-09-17T11:26:05.957Z,19.14
2022-09-17T11:29:22.673Z,18.27
2022-09-17T11:32:29.688Z,18.33
2022-09-17T11:35:11.623Z,18.93
2022-09-17T11:38:39.660Z,18.86
2022-09-17T11:41:17.329Z,18.85
2022-09-17T11:44:20.109Z,18.60
2022-09-17T11:47:10.897Z,18.69
2022-09-17T11:50:00.345Z,18.68
2022-09-17T11:52:44.938Z,18.55
2022-09-17T11:55:46.502Z,18.56
2022-09-17T11:58:51.342Z,18.92
2022-09-17T12:01:58.050Z,18.71
2022-09-17T12:04:45.727Z,18.79
2022-09-17T12:07:48.408Z,18.91
2022-09-17T12:10:43.589Z,19.01
2022-09-17T12:13:22.861Z,19.07
2022-09-17T12:16:01.420Z,19.37
2022-09-17T12:18:50.771Z,19.28
2022-09-17T12:21:55.101Z,19.36
2022-09-17T12:24:29.024Z,19.27
2022-09-17T12:26:56.130Z,19.29
2022-09-17T12:30:05.451Z,19.14
2022-09-17T12:33:18.852Z,18.70
2022-09-17T12:36:13.173Z,19.08
2022-09-17T12:39:13.283Z,19.48
2022-09-17T12:41:47.157Z,19.36
2022-09-17T12:44:41.441Z,19.39
2022-09-17T12:47:45.157Z,19.65
2022-09-17T12:51:13.627Z,19.68
2022-09-17T12:54:24.897Z,20.06
2022-09-17T12:57:16.601Z,20.17
2022-09-17T13:00:05.223Z,19.98
2022-09-17T13:02:49.451Z,19.69
2022-09-17T13:05:39.077Z,19.67
2022-09-17T13:08:55.561Z,20.20
2022-09-17T13:12:10.723Z,20.01
2022-09-17T13:15:03.568Z,20.03
2022-09-17T13:18:26.242Z,20.37
2022-09-17T13:21:17.195Z,21.14
2022-09-17T13:23:49.113Z,21.20
2022-09-17T13:26:21.310Z,20.99
2022-09-17T13:28:52.399Z,20.93
2022-09-17T13:31:44.553Z,21.04
2022-09-17T13:34:17.910Z,20.57
2022-09-17T13:36:59.497Z,21.07
2022-09-17T13:39:34.029Z,21.06
2022-09-17T13:42:35.226Z,21.64
2022-09-17T13:45:13.505Z,22.48
2022-09-17T13:48:02.381Z,23.11
2022-09-17T13:50:35.195Z,23.88
2022-09-17T13:53:14.525Z,24.80
2022-09-17T13:55:52.944Z,25.52
2022-09-17T13:58:20.031Z,27.36
2022-09-17T14:01:14.560Z,26.66
2022-09-17T14:03:44.107Z,27.78
2022-09-17T14:06:11.369Z,27.82
2022-09-17T14:08:44.263Z,27.53
2022-09-17T14:11:23.491Z,26.69
2022-09-17T14:14:04.164Z,26.46
2022-09-17T14:16:38.616Z,26.57
2022-09-17T14:19:47.751Z,27.78
2022-09-17T14:22:25.519Z,28.99
2022-09-17T14:24:54.606Z,28.01
2022-09-17T14:27:50.860Z,27.18
2022-09-17T14:30:30.359Z,27.69
2022-09-17T14:33:26.192Z,27.83
2022-09-17T14:36:10.569Z,28.49
2022-09-17T14:38:48.150Z,30.05
2022-09-17T14:41:15.177Z,29.48
2022-09-17T14:44:08.160Z,30.25
2022-09-17T14:46:49.836Z,30.79
2022-09-17T14:49:33.425Z,30.97
2022-09-17T14:52:02.740Z,29.93
2022-09-17T14:54:36.016Z,30.46
2022-09-17T14:57:09.618Z,30.99
2022-09-17T14:59:57.425Z,31.16
2022-09-17T15:02:37.050Z,30.48
2022-09-17T15:05:27.037Z,30.96
2022-09-17T15:08:11.215Z,31.37
2022-09-17T15:11:00.198Z,31.83
2022-09-17T15:13:48.693Z,31.40
2022-09-17T15:16:27.097Z,31.44
2022-09-17T15:19:06.488Z,31.60
2022-09-17T15:21:49.022Z,32.13
2022-09-17T15:24:34.810Z,31.93
2022-09-17T15:27:39.601Z,32.39
2022-09-17T15:30:22.660Z,31.98
2022-09-17T15:32:57.074Z,31.47
2022-09-17T15:35:33.989Z,31.12
2022-09-17T15:38:24.082Z,30.71
2022-09-17T15:40:52.765Z,32.05
2022-09-17T15:43:33.030Z,32.60
2022-09-17T15:46:31.422Z,33.27
2022-09-17T15:49:02.496Z,33.25
2022-09-17T15:51:34.756Z,32.12
2022-09-17T15:54:31.462Z,32.84
2022-09-17T15:57:01.473Z,32.93
2022-09-17T15:59:33.355Z,33.27
2022-09-17T16:02:02.267Z,32.20
2022-09-17T16:04:34.487Z,31.12
2022-09-17T16:07:07.887Z,30.49
2022-09-17T16:09:50.650Z,28.64
2022-09-17T16:12:25.998Z,30.85
2022-09-17T16:15:01.337Z,32.72
2022-09-17T16:17:45.161Z,32.06
2022-09-17T16:20:25.710Z,32.02
2022-09-17T16:22:53.861Z,31.21
2022-09-17T16:25:27.150Z,30.88
2022-09-17T16:28:11.102Z,29.88
2022-09-17T16:30:47.720Z,28.81
2022-09-17T16:33:17.599Z,28.64
2022-09-17T16:35:44.963Z,28.89
2022-09-17T16:38:12.936Z,28.77
2022-09-17T16:40:49.621Z,28.47
2022-09-17T16:43:16.812Z,28.06
2022-09-17T16:46:07.346Z,26.44
2022-09-17T16:48:34.913Z,24.63
2022-09-17T16:51:08.677Z,23.43
2022-09-17T16:53:36.003Z,22.84
2022-09-17T16:56:11.971Z,21.98
2022-09-17T16:58:40.152Z,21.92
2022-09-17T17:01:15.714Z,21.84
2022-09-17T17:03:45.431Z,21.83
2022-09-17T17:06:18.172Z,21.95
2022-09-17T17:08:45.513Z,21.73
2022-09-17T17:11:13.934Z,21.31
2022-09-17T17:13:45.154Z,20.88
2022-09-17T17:16:15.019Z,20.48
2022-09-17T17:18:44.593Z,20.17
2022-09-17T17:21:14.538Z,19.92
2022-09-17T17:23:44.829Z,19.70
2022-09-17T17:26:12.609Z,19.47
2022-09-17T17:28:40.000Z,19.29
2022-09-17T17:31:07.550Z,19.23
2022-09-17T17:33:35.549Z,19.17
2022-09-17T17:36:08.170Z,19.12
2022-09-17T17:38:37.089Z,19.19
2022-09-17T17:41:15.529Z,19.03
2022-09-17T17:43:42.727Z,18.81
2022-09-17T17:46:12.277Z,18.87
2022-09-17T17:48:39.840Z,18.90
2022-09-17T17:51:11.468Z,18.83
2022-09-17T17:53:42.857Z,18.75
2022-09-17T17:56:11.876Z,18.44
2022-09-17T17:58:40.182Z,18.45
2022-09-17T18:01:31.406Z,18.44
2022-09-17T18:04:02.650Z,18.27
2022-09-17T18:06:30.875Z,18.08
2022-09-17T18:08:58.397Z,17.86
2022-09-17T18:11:26.155Z,17.76
2022-09-17T18:14:00.340Z,17.65
2022-09-17T18:16:29.224Z,17.52
2022-09-17T18:18:58.316Z,17.66
2022-09-17T18:21:26.828Z,17.73
2022-09-17T18:23:54.541Z,17.67
2022-09-17T18:26:27.807Z,17.54
2022-09-17T18:28:55.734Z,17.52
2022-09-17T18:31:29.539Z,17.52
2022-09-17T18:34:00.838Z,17.34
2022-09-17T18:36:32.486Z,17.23
2022-09-17T18:41:52.931Z,17.09
2022-09-17T18:44:21.836Z,16.84
2022-09-17T18:46:51.131Z,16.77
2022-09-17T18:49:18.666Z,16.64
2022-09-17T18:51:46.174Z,16.53
2022-09-17T18:54:13.748Z,16.58
2022-09-17T18:56:41.763Z,16.59
2022-09-17T18:59:10.732Z,16.56
2022-09-17T19:01:38.643Z,16.50
2022-09-17T19:04:07.721Z,16.38
2022-09-17T19:06:35.578Z,16.36
2022-09-17T19:09:05.439Z,16.33
2022-09-17T19:11:35.516Z,16.21
2022-09-17T19:14:03.028Z,16.19
2022-09-17T19:16:30.378Z,16.13
2022-09-17T19:18:57.866Z,16.11
2022-09-17T19:21:25.525Z,16.12
2022-09-17T19:23:53.689Z,16.17
2022-09-17T19:26:27.134Z,16.24
2022-09-17T19:29:00.310Z,16.33
2022-09-17T19:31:28.579Z,16.41
2022-09-17T19:33:58.418Z,16.60
2022-09-17T19:36:26.237Z,16.63
2022-09-17T19:38:55.258Z,16.72
2022-09-17T19:41:23.207Z,16.77
2022-09-17T19:43:53.352Z,16.78
2022-09-17T19:46:24.969Z,16.89
2022-09-17T19:48:56.862Z,16.87
2022-09-17T19:51:26.648Z,16.85
2022-09-17T19:53:54.116Z,16.86
2022-09-17T19:56:25.415Z,16.88
2022-09-17T19:58:53.213Z,16.88
2022-09-17T20:01:21.028Z,16.99
2022-09-17T20:03:48.677Z,17.01
2022-09-17T20:06:20.547Z,16.93
2022-09-17T20:08:52.370Z,16.96
2022-09-17T20:11:25.069Z,17.04
2022-09-17T20:14:06.553Z,17.04
2022-09-17T20:16:36.593Z,16.97
2022-09-17T20:19:06.146Z,16.91
2022-09-17T20:21:34.418Z,16.83
2022-09-17T20:24:02.098Z,16.86
2022-09-17T20:26:29.282Z,16.86
2022-09-17T20:28:57.058Z,16.88
2022-09-17T20:31:30.693Z,16.92
2022-09-17T20:34:02.221Z,16.83
2022-09-17T20:36:36.351Z,16.78
2022-09-17T20:39:13.231Z,16.68
2022-09-17T20:41:42.174Z,16.76
2022-09-17T20:44:09.524Z,16.65
2022-09-17T20:46:36.817Z,16.61
2022-09-17T20:49:05.321Z,16.54
2022-09-17T20:51:33.890Z,16.56
2022-09-17T20:54:01.818Z,16.60
2022-09-17T20:56:33.315Z,16.78
2022-09-17T20:59:13.231Z,16.71
2022-09-17T21:01:44.789Z,16.68
2022-09-17T21:04:19.240Z,16.58
2022-09-17T21:06:49.526Z,16.59
2022-09-17T21:09:17.096Z,16.79
2022-09-17T21:11:46.919Z,16.99
2022-09-17T21:14:18.438Z,16.92
2022-09-17T21:16:46.553Z,16.96
2022-09-17T21:19:16.176Z,17.02
2022-09-17T21:21:44.339Z,17.12
2022-09-17T21:24:11.666Z,17.02
2022-09-17T21:26:39.040Z,17.10
2022-09-17T21:29:06.493Z,17.08
2022-09-17T21:31:37.076Z,17.17
2022-09-17T21:34:09.776Z,17.13
2022-09-17T21:36:39.893Z,17.04
2022-09-17T21:39:16.451Z,16.94
2022-09-17T21:41:46.055Z,16.74
2022-09-17T21:44:14.029Z,16.75
2022-09-17T21:46:42.812Z,16.76
2022-09-17T21:49:11.158Z,16.86
2022-09-17T21:51:42.467Z,16.98
2022-09-17T21:54:15.280Z,16.95
2022-09-17T21:56:46.341Z,17.11
2022-09-17T21:59:16.508Z,17.05
2022-09-17T22:01:48.697Z,17.06
2022-09-17T22:04:22.078Z,17.08
2022-09-17T22:06:50.355Z,17.00
2022-09-17T22:09:25.543Z,16.84
2022-09-17T22:11:53.538Z,16.75
2022-09-17T22:14:24.644Z,16.72
2022-09-17T22:16:56.919Z,16.65
2022-09-17T22:19:25.528Z,16.62
2022-09-17T22:21:55.825Z,16.56
2022-09-17T22:24:24.373Z,16.58
2022-09-17T22:26:57.794Z,16.54
2022-09-17T22:29:31.373Z,16.37
2022-09-17T22:31:58.717Z,16.21
2022-09-17T22:34:26.432Z,16.27
2022-09-17T22:36:53.922Z,16.30
2022-09-17T22:39:22.259Z,16.30
2022-09-17T22:41:50.473Z,16.38
2022-09-17T22:44:19.974Z,16.33
2022-09-17T22:46:51.221Z,16.20
2022-09-17T22:49:19.561Z,16.03
2022-09-17T22:51:47.539Z,15.97
2022-09-17T22:54:17.533Z,15.97
2022-09-17T22:56:47.059Z,16.14
2022-09-17T22:59:14.845Z,16.09
2022-09-17T23:01:42.504Z,16.02
2022-09-17T23:04:10.424Z,15.90
2022-09-17T23:06:42.027Z,15.86
2022-09-17T23:09:12.041Z,15.75
2022-09-17T23:11:40.034Z,15.62
2022-09-17T23:14:12.271Z,15.46
2022-09-17T23:16:44.381Z,15.44
2022-09-17T23:19:12.093Z,15.42
2022-09-17T23:21:39.681Z,15.46
2022-09-17T23:24:08.231Z,15.47
2022-09-17T23:26:35.613Z,15.44
2022-09-17T23:29:05.344Z,15.44
2022-09-17T23:31:37.029Z,15.40
2022-09-17T23:34:06.524Z,15.37
2022-09-17T23:36:37.995Z,15.26
2022-09-17T23:39:07.644Z,15.24
2022-09-17T23:41:40.492Z,15.16
2022-09-17T23:44:14.972Z,15.10
2022-09-17T23:46:45.172Z,15.05
2022-09-17T23:49:14.295Z,15.00
2022-09-17T23:51:41.952Z,14.92
2022-09-17T23:54:09.625Z,14.84
2022-09-17T23:56:37.332Z,14.81
2022-09-17T23:59:04.851Z,14.78
